Flight Track Log - Related Links

Times and Time Zones

All times are in EDT time to prevent confusion due to time zone crossing. See the LOF3359 flight status page for this flight to view local times or setup timezone preferences in your user account.

Time Position Orientation Groundspeed Altitude Reporting Facility
EDT Latitude Longitude Course Direction KTS MPH feet Rate Location/Type
Wed 02:33:45 PM 39.9414 -84.1792 52° Northeast 183 211 2,700  Level Indianapolis Center
Wed 02:34:14 PM 39.9450 -84.1522 80° East 198 228 3,500 1,533 Climbing Indianapolis Center
Wed 02:35:15 PM 39.9581 -84.0669 79° East 229 264 5,000 2,098 Climbing Indianapolis Center
Wed 02:36:17 PM 39.9736 -83.9481 80° East 267 307 7,800 2,516 Climbing Indianapolis Center
Wed 02:37:00 PM 39.9879 -83.5790 79° East  Level FlightAware Approximate
Wed 02:37:19 PM 39.9881 -83.8444 80° East 280 322 10,200  Level Indianapolis Center
Wed 02:38:00 PM 40.0107 -83.4520 74° East  Level FlightAware Approximate
Wed 02:38:20 PM 40.0033 -83.7331 80° East 309 356 11,600  Level Indianapolis Center
Wed 02:39:22 PM 40.0203 -83.6078 80° East 344 396 12,900 1,210 Climbing Indianapolis Center
Wed 02:40:24 PM 40.0381 -83.4733 80° East 367 422 14,100 1,210 Climbing Indianapolis Center
Wed 02:41:26 PM 40.0558 -83.3342 80° East 380 437 15,400 1,220 Climbing Indianapolis Center
Wed 02:42:27 PM 40.0747 -83.1919 80° East 390 449 16,600 1,171 Climbing Indianapolis Center
Wed 02:43:29 PM 40.0933 -83.0494 80° East 394 453 17,800 1,113 Climbing Indianapolis Center
Wed 02:44:31 PM 40.1117 -82.9039 81° East 401 461 18,900 1,113 Climbing Indianapolis Center
Wed 02:45:33 PM 40.1300 -82.7556 81° East 408 470 20,100 1,220 Climbing Indianapolis Center
Wed 02:46:34 PM 40.1489 -82.6022 81° East 420 483 21,400 1,220 Climbing Indianapolis Center
Wed 02:47:36 PM 40.1417 -82.4475 93° East 422 486 22,600 1,161 Climbing Indianapolis Center
Wed 02:48:38 PM 40.1300 -82.2894 95° East 431 496 23,800 1,258 Climbing Indianapolis Center
Wed 02:49:40 PM 40.1167 -82.1056 95° East 432 497 25,200 1,258 Climbing Indianapolis Center
Wed 02:50:42 PM 40.1050 -81.9472 95° East 434 499 26,400 878 Climbing Indianapolis Center
Wed 02:51:43 PM 40.0933 -81.7919 96° East 429 494 27,000 293 Climbing Indianapolis Center
Wed 02:52:45 PM 40.0811 -81.6325 96° East 417 480 27,000  Level Indianapolis Center
Wed 02:53:47 PM 40.0975 -81.4914 81° East 400 460 27,000  Level Indianapolis Center
Wed 02:54:38 PM 40.1497 -81.4033 52° Northeast 373 429 27,000  Level Cleveland Center
Wed 02:55:39 PM 40.2294 -81.3036 44° Northeast 373 429 27,000  Level Cleveland Center
Wed 02:56:39 PM 40.3031 -81.1956 48° Northeast 382 440 27,000  Level Cleveland Center
Wed 02:57:39 PM 40.3206 -81.0514 81° East 387 445 27,000  Level Cleveland Center
Wed 02:58:39 PM 40.2625 -80.9314 122° Southeast 353 406 27,000  Level Cleveland Center
Wed 02:59:39 PM 40.1628 -80.8711 155° Southeast 332 382 27,000  Level Cleveland Center
Wed 03:00:39 PM 40.0606 -80.8164 158° South 359 413 27,000  Level Cleveland Center
Wed 03:01:39 PM 39.9608 -80.7619 157° South 375 432 27,000  Level Cleveland Center
Wed 03:02:39 PM 39.8608 -80.7103 158° South 388 447 27,000  Level Cleveland Center
Wed 03:03:39 PM 39.7586 -80.6533 157° South 393 452 27,000  Level Cleveland Center
Wed 03:04:39 PM 39.6564 -80.6019 159° South 393 452 27,000  Level Cleveland Center
Wed 03:05:39 PM 39.5814 -80.4914 131° Southeast 393 452 27,000  Level Cleveland Center
Wed 03:06:51 PM 39.5656 -80.3000 96° East 403 464 27,000  Level Washington Center
Wed 03:07:51 PM 39.5517 -80.1186 96° East 464 534 27,000  Level Washington Center
Wed 03:08:51 PM 39.5386 -79.9592 96° East 459 528 27,000  Level Washington Center
Wed 03:09:51 PM 39.5236 -79.7942 97° East 459 528 27,000  Level Washington Center
Wed 03:10:51 PM 39.5086 -79.6292 97° East 453 521 27,000 -250 Level Washington Center
Wed 03:11:51 PM 39.4889 -79.4667 99° East 458 527 26,500 -700 Descending Washington Center
Wed 03:12:51 PM 39.4603 -79.3119 103° East 452 520 25,600 -1,200 Descending Washington Center
Wed 03:13:51 PM 39.4358 -79.1600 102° East 436 502 24,100 -1,600 Descending Washington Center
Wed 03:14:51 PM 39.4089 -79.0136 103° East 421 484 22,400 -1,950 Descending Washington Center
Wed 03:15:51 PM 39.3789 -78.8914 108° East 408 470 20,200 -2,350 Descending Washington Center
Wed 03:16:51 PM 39.3536 -78.7453 103° East 395 455 17,700 -2,400 Descending Washington Center
Wed 03:17:51 PM 39.3336 -78.6292 103° East 374 430 15,400 -2,450 Descending Washington Center
Wed 03:18:51 PM 39.3081 -78.4858 103° East 369 425 12,800 -2,200 Descending Washington Center
Wed 03:19:51 PM 39.2875 -78.3806 104° East 357 411 11,000 -900 Descending Washington Center
Wed 03:20:51 PM 39.2397 -78.2794 121° Southeast 313 360 11,000 -600 Level Washington Center
Wed 03:21:51 PM 39.1939 -78.1894 123° Southeast 303 349 9,800 -1,300 Descending Washington Center
Wed 03:22:51 PM 39.1478 -78.1047 125° Southeast 297 342 8,400 -1,400 Descending Washington Center
Wed 03:23:51 PM 39.1036 -78.0203 124° Southeast 291 335 7,000 -700 Descending Washington Center
Wed 03:24:51 PM 39.0636 -77.9361 121° Southeast 291 335 7,000 50 Level Washington Center
Wed 03:25:51 PM 39.0172 -77.8572 127° Southeast 281 323 7,100 -450 Climbing Washington Center
Wed 03:26:51 PM 38.9728 -77.7756 125° Southeast 281 323 6,100 -500 Descending Washington Center
Wed 03:27:51 PM 38.9578 -77.6792 101° East 265 305 6,100 -62 Level Washington Center
Wed 03:28:28 PM 38.9333 -77.6167 117° Southeast 275 316 6,000 -757 Descending Potomac TRACON
Wed 03:29:34 PM 38.8667 -77.5833 159° South 261 300 4,800 -1,000 Descending Potomac TRACON
Wed 03:30:34 PM 38.8000 -77.5500 159° South 273 314 3,900 -783 Descending Potomac TRACON
Wed 03:31:29 PM 38.8000 -77.4833 90° East 245 282 3,300 -655 Descending Potomac TRACON

Login

Don't have an account? Register now (free) for customized features, flight alerts, and more!